Time;durP1;ratioP1;P1;durP2;ratioP2;P2;SDS_P1;SDS_P2;PMS_P1;PMS_P2;Temp;Humidity;BMP_temperature;BMP_pressure;BME280_temperature;BME280_humidity;BME280_pressure;Samples;Min_cycle;Max_cycle;Signal;HPM_P1;HPM_P2
2021/12/29 00:01:26;;;;;;;2.45;1.73;;;9.20;99.90;;;;;;4902810;29;20261;-63
2021/12/29 00:03:54;;;;;;;1.35;0.90;;;9.20;99.90;;;;;;4902892;29;20232;-63
2021/12/29 00:06:22;;;;;;;1.55;1.15;;;9.20;99.90;;;;;;4905584;29;20245;-62
2021/12/29 00:08:50;;;;;;;2.55;0.90;;;9.20;99.90;;;;;;4907714;29;20224;-63
2021/12/29 00:11:19;;;;;;;1.10;0.88;;;9.30;99.90;;;;;;4919874;29;20256;-63
2021/12/29 00:13:47;;;;;;;3.20;1.02;;;9.30;99.90;;;;;;4919454;29;20776;-63
2021/12/29 00:16:15;;;;;;;2.15;0.80;;;9.40;99.90;;;;;;4902744;29;20268;-63
2021/12/29 00:18:44;;;;;;;1.63;0.80;;;9.50;99.90;;;;;;4909708;29;20212;-63
2021/12/29 00:21:14;;;;;;;3.33;1.00;;;9.50;99.90;;;;;;4908816;29;20720;-63
2021/12/29 00:23:58;;;;;;;3.10;1.20;;;9.50;99.90;;;;;;4900729;29;20327;-64
2021/12/29 00:26:31;;;;;;;2.10;0.90;;;9.50;99.90;;;;;;4902917;29;20287;-64
2021/12/29 00:28:59;;;;;;;2.03;1.17;;;9.50;99.90;;;;;;4906576;29;20197;-64
2021/12/29 00:31:27;;;;;;;1.60;0.80;;;9.50;99.90;;;;;;4904741;29;20262;-64
2021/12/29 00:33:55;;;;;;;1.42;1.15;;;9.50;99.90;;;;;;4912292;29;20252;-64
2021/12/29 00:36:25;;;;;;;4.38;0.93;;;9.50;99.90;;;;;;4902209;29;20724;-64
2021/12/29 00:38:53;;;;;;;2.03;1.15;;;9.50;99.90;;;;;;4912189;29;20279;-64
2021/12/29 00:41:21;;;;;;;2.17;1.10;;;9.50;99.90;;;;;;4914476;29;20197;-63
2021/12/29 00:43:51;;;;;;;2.80;1.15;;;9.50;99.90;;;;;;4909777;29;20319;-62
2021/12/29 00:46:19;;;;;;;3.17;1.63;;;9.60;99.90;;;;;;4909913;29;20232;-63
2021/12/29 00:48:48;;;;;;;2.28;0.90;;;9.60;99.90;;;;;;4906237;29;20255;-63
2021/12/29 00:51:17;;;;;;;2.00;1.08;;;9.60;99.90;;;;;;4907965;29;20626;-63
2021/12/29 00:53:45;;;;;;;3.90;1.80;;;9.60;99.90;;;;;;4907138;29;20225;-64
2021/12/29 00:56:13;;;;;;;1.95;1.00;;;9.60;99.90;;;;;;4908085;29;20308;-64
2021/12/29 00:58:40;;;;;;;2.20;1.15;;;9.60;99.90;;;;;;4899985;29;20347;-64
2021/12/29 01:01:10;;;;;;;1.40;0.93;;;9.50;99.90;;;;;;4905702;29;20279;-64
2021/12/29 01:03:38;;;;;;;1.83;1.00;;;9.40;99.90;;;;;;4907832;29;20229;-64
2021/12/29 01:06:06;;;;;;;6.78;1.48;;;9.40;99.90;;;;;;4907662;29;20204;-64
2021/12/29 01:08:34;;;;;;;3.67;1.15;;;9.40;99.90;;;;;;4900915;29;20197;-64
2021/12/29 01:11:03;;;;;;;2.53;0.93;;;9.30;99.90;;;;;;4911973;29;20279;-64
2021/12/29 01:13:33;;;;;;;2.15;1.13;;;9.30;99.90;;;;;;4909773;29;20323;-64
2021/12/29 01:16:36;;;;;;;3.58;1.35;;;9.30;99.90;;;;;;4912623;29;20589;-64
2021/12/29 01:19:00;;;;;;;1.90;1.15;;;9.30;99.90;;;;;;4912142;29;20200;-64
2021/12/29 01:21:28;;;;;;;2.05;1.17;;;9.20;99.90;;;;;;4902853;29;20259;-64
2021/12/29 01:23:56;;;;;;;3.53;1.20;;;9.20;99.90;;;;;;4904953;29;20269;-64
2021/12/29 01:26:24;;;;;;;1.75;1.10;;;9.20;99.90;;;;;;4909876;29;20740;-64
2021/12/29 01:28:52;;;;;;;3.15;1.50;;;9.20;99.90;;;;;;4899827;29;20580;-64
2021/12/29 01:31:20;;;;;;;2.88;1.23;;;9.20;99.90;;;;;;4915146;29;20670;-64
2021/12/29 01:33:48;;;;;;;3.95;1.48;;;9.20;99.90;;;;;;4915000;29;20227;-64
2021/12/29 01:36:17;;;;;;;2.45;1.80;;;9.20;99.90;;;;;;4902754;29;20758;-64
2021/12/29 01:38:45;;;;;;;3.67;1.33;;;9.10;99.90;;;;;;4911822;29;20248;-64
2021/12/29 01:41:13;;;;;;;1.63;1.50;;;9.20;99.90;;;;;;4900450;29;20299;-66
2021/12/29 01:43:41;;;;;;;1.17;1.08;;;9.20;99.90;;;;;;4915370;29;20308;-65
2021/12/29 01:46:08;;;;;;;1.95;1.30;;;9.20;99.90;;;;;;4910826;29;20573;-64
2021/12/29 01:48:36;;;;;;;2.38;1.40;;;9.20;99.90;;;;;;4911210;29;20228;-64
2021/12/29 01:51:05;;;;;;;1.80;1.10;;;9.20;99.90;;;;;;4899407;29;20235;-64
2021/12/29 01:53:35;;;;;;;1.20;1.08;;;9.20;99.90;;;;;;4908064;29;20259;-64
2021/12/29 01:56:04;;;;;;;1.30;0.82;;;9.30;99.90;;;;;;4906494;29;20291;-64
2021/12/29 01:58:32;;;;;;;1.83;1.15;;;9.30;99.90;;;;;;4903063;29;20249;-64
2021/12/29 02:01:02;;;;;;;2.05;1.40;;;9.30;99.90;;;;;;4911594;29;20232;-64
2021/12/29 02:03:30;;;;;;;0.80;0.70;;;9.30;99.90;;;;;;4902497;29;20276;-64
2021/12/29 02:05:58;;;;;;;1.10;0.80;;;9.30;99.90;;;;;;4905549;29;20295;-64
2021/12/29 02:08:26;;;;;;;3.30;1.20;;;9.20;99.90;;;;;;4913519;29;20305;-64
2021/12/29 02:10:57;;;;;;;4.72;0.98;;;9.20;99.90;;;;;;4902982;29;20721;-64
2021/12/29 02:13:25;;;;;;;1.48;0.70;;;9.20;99.90;;;;;;4918415;29;20224;-65
2021/12/29 02:15:53;;;;;;;2.45;0.90;;;9.20;99.90;;;;;;4916946;29;20313;-64
2021/12/29 02:18:21;;;;;;;2.95;1.30;;;9.20;99.90;;;;;;4912664;29;20315;-65
2021/12/29 02:20:53;;;;;;;2.45;1.40;;;9.20;99.90;;;;;;4902852;29;20292;-64
2021/12/29 02:23:28;;;;;;;1.30;1.20;;;9.20;99.90;;;;;;4912541;29;20233;-63
2021/12/29 02:25:57;;;;;;;2.15;0.90;;;9.20;99.90;;;;;;4909194;29;20239;-64
2021/12/29 02:28:29;;;;;;;2.55;1.25;;;9.20;99.90;;;;;;4904807;29;20224;-64
2021/12/29 02:30:59;;;;;;;1.95;1.10;;;9.20;99.90;;;;;;4916812;29;20923;-64
2021/12/29 02:33:30;;;;;;;1.80;1.27;;;9.20;99.90;;;;;;4917781;29;20228;-64
2021/12/29 02:36:00;;;;;;;2.47;1.00;;;9.20;99.90;;;;;;4908230;29;20237;-64
2021/12/29 02:38:30;;;;;;;1.35;0.90;;;9.10;99.90;;;;;;4913081;29;20648;-64
2021/12/29 02:41:02;;;;;;;1.17;1.02;;;9.10;99.90;;;;;;4902522;29;20359;-64
2021/12/29 02:43:32;;;;;;;2.55;0.82;;;9.20;99.90;;;;;;4917870;29;20717;-64
2021/12/29 02:46:00;;;;;;;1.40;0.90;;;9.30;99.90;;;;;;4915448;29;20245;-64
2021/12/29 02:48:32;;;;;;;1.88;1.35;;;9.30;99.90;;;;;;4913101;29;20287;-64
2021/12/29 02:51:04;;;;;;;2.03;1.30;;;9.30;99.90;;;;;;4902096;29;20288;-64
2021/12/29 02:53:32;;;;;;;2.55;1.20;;;9.30;99.90;;;;;;4910967;29;20229;-64
2021/12/29 02:56:00;;;;;;;3.28;0.90;;;9.30;99.90;;;;;;4909184;29;20201;-64
2021/12/29 02:58:28;;;;;;;0.70;0.70;;;9.40;99.90;;;;;;4903892;29;20300;-65
2021/12/29 03:00:57;;;;;;;1.38;0.93;;;9.40;99.90;;;;;;4914494;29;20297;-64
2021/12/29 03:03:30;;;;;;;1.77;0.70;;;9.50;99.90;;;;;;4913699;29;20221;-65
2021/12/29 03:05:58;;;;;;;1.40;1.05;;;9.50;99.90;;;;;;4908823;29;20233;-64
2021/12/29 03:08:27;;;;;;;2.78;1.33;;;9.50;99.90;;;;;;4904103;29;20197;-64
2021/12/29 03:10:56;;;;;;;2.78;1.15;;;9.50;99.90;;;;;;4914413;29;20288;-64
2021/12/29 03:13:26;;;;;;;1.73;1.02;;;9.50;99.90;;;;;;4911006;29;20674;-65
2021/12/29 03:15:54;;;;;;;1.13;1.00;;;9.50;99.90;;;;;;4915869;29;20300;-65
2021/12/29 03:18:23;;;;;;;1.23;0.80;;;9.60;99.90;;;;;;4911044;29;20228;-65
2021/12/29 03:20:50;;;;;;;0.70;0.70;;;9.60;99.90;;;;;;4901750;29;20308;-65
2021/12/29 03:23:19;;;;;;;2.17;1.10;;;9.60;99.90;;;;;;4911829;29;20730;-64
2021/12/29 03:25:49;;;;;;;2.55;1.00;;;9.50;99.90;;;;;;4903463;29;20285;-65
2021/12/29 03:28:18;;;;;;;1.00;0.90;;;9.50;99.90;;;;;;4909724;29;20224;-64
2021/12/29 03:30:51;;;;;;;1.15;0.80;;;9.60;99.90;;;;;;4901756;29;20288;-65
2021/12/29 03:33:19;;;;;;;1.17;0.80;;;9.60;99.90;;;;;;4907383;29;20236;-65
2021/12/29 03:35:50;;;;;;;0.80;0.70;;;9.70;99.90;;;;;;4903008;29;20922;-65
2021/12/29 03:38:20;;;;;;;1.60;1.00;;;9.80;99.90;;;;;;4912146;29;20340;-63
2021/12/29 03:40:50;;;;;;;3.28;0.90;;;9.80;99.90;;;;;;4900517;29;20791;-64
2021/12/29 03:43:18;;;;;;;0.95;0.73;;;9.70;99.90;;;;;;4913587;29;20343;-63
2021/12/29 03:45:48;;;;;;;1.55;0.80;;;9.60;99.90;;;;;;4913065;29;20224;-64
2021/12/29 03:48:17;;;;;;;1.17;0.68;;;9.60;99.90;;;;;;4904482;29;20205;-64
2021/12/29 03:50:46;;;;;;;1.70;0.82;;;9.70;99.90;;;;;;4913651;29;20687;-64
2021/12/29 03:53:15;;;;;;;0.80;0.70;;;9.60;99.90;;;;;;4901901;29;20303;-64
2021/12/29 03:55:43;;;;;;;3.17;1.10;;;9.60;99.90;;;;;;4908399;29;20248;-64
2021/12/29 03:58:13;;;;;;;2.47;0.90;;;9.60;99.90;;;;;;4909706;29;20213;-64
2021/12/29 04:00:41;;;;;;;3.28;0.70;;;9.50;99.90;;;;;;4901075;29;20642;-63
2021/12/29 04:03:09;;;;;;;1.98;0.95;;;9.50;99.90;;;;;;4901165;29;20572;-65
2021/12/29 04:05:37;;;;;;;1.23;1.00;;;9.50;99.90;;;;;;4908979;29;20210;-64
2021/12/29 04:08:05;;;;;;;2.60;1.13;;;9.50;99.90;;;;;;4903418;29;20292;-64
2021/12/29 04:10:34;;;;;;;2.53;1.20;;;9.40;99.90;;;;;;4900313;29;20229;-64
2021/12/29 04:13:03;;;;;;;2.50;1.27;;;9.40;99.90;;;;;;4915701;29;20291;-64
2021/12/29 04:15:33;;;;;;;1.73;1.10;;;9.30;99.90;;;;;;4917457;29;20284;-64
2021/12/29 04:18:03;;;;;;;2.03;0.75;;;9.30;99.90;;;;;;4907993;29;20676;-64
2021/12/29 04:23:20;;;;;;;3.47;0.90;;;9.30;99.90;;;;;;4910899;29;20252;-64
2021/12/29 04:25:51;;;;;;;1.80;0.80;;;9.30;99.90;;;;;;4906085;29;20288;-63
2021/12/29 04:28:22;;;;;;;1.67;0.60;;;9.30;99.90;;;;;;4903651;29;20296;-64
2021/12/29 04:30:54;;;;;;;1.88;1.17;;;9.20;99.90;;;;;;4913038;29;20235;-64
2021/12/29 04:33:23;;;;;;;0.88;0.73;;;9.10;99.90;;;;;;4916082;29;20231;-64
2021/12/29 04:35:52;;;;;;;2.05;0.90;;;9.10;99.90;;;;;;4906730;29;20209;-64
2021/12/29 04:38:21;;;;;;;2.17;0.77;;;9.10;99.90;;;;;;4909942;29;20228;-64
2021/12/29 04:40:50;;;;;;;1.20;0.80;;;9.00;99.90;;;;;;4900359;29;20252;-64
2021/12/29 04:43:19;;;;;;;0.80;0.70;;;9.20;99.90;;;;;;4915796;29;20252;-64
2021/12/29 04:45:48;;;;;;;1.88;1.10;;;9.10;99.90;;;;;;4914926;29;20300;-63
2021/12/29 04:48:18;;;;;;;0.80;0.80;;;9.20;99.90;;;;;;4909321;29;20216;-63
2021/12/29 04:50:52;;;;;;;1.20;1.10;;;9.10;99.90;;;;;;4900373;29;20291;-63
2021/12/29 04:53:21;;;;;;;2.85;0.93;;;9.10;99.90;;;;;;4910676;29;20304;-63
2021/12/29 04:55:50;;;;;;;1.75;0.93;;;9.20;99.90;;;;;;4905710;29;20231;-63
2021/12/29 04:58:20;;;;;;;0.90;0.90;;;9.20;99.90;;;;;;4902975;29;20288;-63
2021/12/29 05:00:51;;;;;;;1.52;1.00;;;9.20;99.90;;;;;;4912498;29;20197;-63
2021/12/29 05:03:21;;;;;;;1.60;0.80;;;9.20;99.90;;;;;;4901448;29;20221;-63
2021/12/29 05:05:56;;;;;;;0.70;0.60;;;9.30;99.90;;;;;;4906588;29;20280;-63
2021/12/29 05:08:26;;;;;;;1.27;0.70;;;9.30;99.90;;;;;;4910261;29;20235;-63
2021/12/29 05:10:55;;;;;;;1.80;0.80;;;9.30;99.90;;;;;;4900058;29;20746;-63
2021/12/29 05:13:24;;;;;;;1.55;0.80;;;9.40;99.90;;;;;;4913940;29;20308;-63
2021/12/29 05:15:55;;;;;;;1.42;0.80;;;9.30;99.90;;;;;;4908834;29;20288;-63
2021/12/29 05:18:25;;;;;;;1.65;0.80;;;9.40;99.90;;;;;;4909820;29;20629;-63
2021/12/29 05:20:54;;;;;;;1.13;1.02;;;9.40;99.90;;;;;;4899861;29;20250;-63
2021/12/29 05:23:22;;;;;;;1.00;0.88;;;9.40;99.90;;;;;;4909674;29;20240;-63
2021/12/29 05:25:51;;;;;;;1.20;0.90;;;9.40;99.90;;;;;;4905376;29;20228;-64
2021/12/29 05:28:19;;;;;;;1.55;0.75;;;9.40;99.90;;;;;;4902688;29;20228;-63
2021/12/29 05:30:49;;;;;;;0.70;0.70;;;9.30;99.90;;;;;;4912710;29;20243;-63
2021/12/29 05:33:18;;;;;;;1.27;1.00;;;9.30;99.90;;;;;;4910430;29;20311;-63
2021/12/29 05:35:47;;;;;;;1.00;0.80;;;9.20;99.90;;;;;;4904476;29;20260;-63
2021/12/29 05:38:15;;;;;;;1.83;1.20;;;9.20;99.90;;;;;;4903219;29;20304;-64
2021/12/29 05:40:43;;;;;;;1.40;1.30;;;9.30;99.90;;;;;;4911916;29;20231;-63
2021/12/29 05:43:11;;;;;;;1.50;1.40;;;9.30;99.90;;;;;;4913593;29;20307;-63
2021/12/29 05:45:39;;;;;;;5.85;1.60;;;9.30;99.90;;;;;;4917924;29;20227;-65
2021/12/29 05:48:07;;;;;;;1.38;1.15;;;9.20;99.90;;;;;;4917761;29;20732;-65
2021/12/29 05:50:35;;;;;;;1.90;1.30;;;9.20;99.90;;;;;;4917820;29;20710;-65
2021/12/29 05:53:04;;;;;;;1.42;1.15;;;9.20;99.90;;;;;;4917566;29;20236;-65
2021/12/29 05:55:33;;;;;;;1.10;1.00;;;9.20;99.90;;;;;;4915670;29;20284;-64
2021/12/29 05:58:00;;;;;;;1.23;1.13;;;9.20;99.90;;;;;;4916174;29;20243;-64
2021/12/29 06:00:29;;;;;;;1.23;1.10;;;9.20;99.90;;;;;;4917557;29;20240;-64
2021/12/29 06:02:57;;;;;;;1.20;1.00;;;9.30;99.90;;;;;;4916900;29;20197;-64
2021/12/29 06:05:25;;;;;;;1.27;1.10;;;9.30;99.90;;;;;;4917374;29;20203;-64
2021/12/29 06:07:53;;;;;;;1.42;1.15;;;9.30;99.90;;;;;;4917820;29;20689;-65
2021/12/29 06:10:22;;;;;;;1.25;1.10;;;9.40;99.90;;;;;;4917551;29;20228;-64
2021/12/29 06:12:50;;;;;;;1.42;1.10;;;9.20;99.90;;;;;;4916244;29;20649;-64
2021/12/29 06:15:18;;;;;;;3.30;1.13;;;9.30;99.90;;;;;;4918110;29;20287;-65
2021/12/29 06:17:46;;;;;;;2.70;1.10;;;9.20;99.90;;;;;;4917697;29;20225;-64
2021/12/29 06:20:14;;;;;;;3.05;1.02;;;9.30;99.90;;;;;;4915183;29;20340;-64
2021/12/29 06:22:43;;;;;;;1.85;1.10;;;9.20;99.90;;;;;;4906348;29;20229;-63
2021/12/29 06:25:14;;;;;;;1.27;0.88;;;9.10;99.90;;;;;;4948489;23;20274;-62
2021/12/29 06:27:45;;;;;;;4.40;0.88;;;9.10;99.90;;;;;;4954049;28;20234;-61
2021/12/29 06:30:16;;;;;;;1.45;1.35;;;9.10;99.90;;;;;;4940280;29;20223;-63
2021/12/29 06:32:45;;;;;;;2.20;1.30;;;9.00;99.90;;;;;;4942014;29;20348;-64
2021/12/29 06:35:14;;;;;;;2.22;1.27;;;9.00;99.90;;;;;;4933850;29;20321;-63
2021/12/29 06:37:42;;;;;;;2.40;1.25;;;9.00;99.90;;;;;;4918325;29;20235;-64
2021/12/29 06:40:12;;;;;;;1.10;1.00;;;9.00;99.90;;;;;;4918370;29;20216;-64
2021/12/29 06:42:40;;;;;;;0.95;0.90;;;9.00;99.90;;;;;;4920235;29;20725;-64
2021/12/29 06:45:13;;;;;;;2.65;1.25;;;9.00;99.90;;;;;;4928388;29;20647;-64
2021/12/29 06:47:41;;;;;;;1.75;1.30;;;9.10;99.90;;;;;;4933168;29;20196;-64
2021/12/29 06:50:10;;;;;;;1.30;1.20;;;9.10;99.90;;;;;;4935510;29;20274;-64
2021/12/29 06:52:38;;;;;;;1.77;1.67;;;9.00;99.90;;;;;;4934565;29;20227;-63
2021/12/29 06:55:08;;;;;;;1.70;1.60;;;9.00;99.90;;;;;;4935377;29;20247;-62
2021/12/29 06:57:36;;;;;;;1.55;1.45;;;9.10;99.90;;;;;;4935820;29;20235;-64
2021/12/29 07:00:05;;;;;;;2.28;1.50;;;9.10;99.90;;;;;;4918128;29;20257;-65
2021/12/29 07:02:34;;;;;;;1.52;1.40;;;9.10;99.90;;;;;;4917827;29;20200;-64
2021/12/29 07:05:03;;;;;;;4.57;1.30;;;9.10;99.90;;;;;;4925188;29;20224;-64
2021/12/29 07:07:30;;;;;;;1.20;1.10;;;9.10;99.90;;;;;;4917296;29;20248;-63
2021/12/29 07:09:58;;;;;;;1.73;1.10;;;9.10;99.90;;;;;;4917197;29;20197;-64
2021/12/29 07:12:26;;;;;;;4.38;2.40;;;9.10;99.90;;;;;;4919311;29;20267;-63
2021/12/29 07:14:54;;;;;;;1.40;0.98;;;9.00;99.90;;;;;;4925951;29;20280;-64
2021/12/29 07:17:22;;;;;;;1.40;1.15;;;9.00;99.90;;;;;;4934614;29;20283;-63
2021/12/29 07:19:52;;;;;;;1.30;0.80;;;9.10;99.90;;;;;;4934781;29;20200;-64
2021/12/29 07:22:20;;;;;;;2.70;0.93;;;9.00;99.90;;;;;;4929260;29;20287;-64
2021/12/29 07:24:48;;;;;;;1.00;0.90;;;9.00;99.90;;;;;;4933698;29;20522;-63
2021/12/29 07:27:16;;;;;;;0.75;0.75;;;8.90;99.90;;;;;;4929938;29;20307;-63
2021/12/29 07:29:44;;;;;;;1.05;0.90;;;8.90;99.90;;;;;;4930915;29;20212;-62
2021/12/29 07:32:12;;;;;;;3.53;1.25;;;8.90;99.90;;;;;;4932552;29;20227;-62
2021/12/29 07:34:40;;;;;;;2.45;1.40;;;9.00;99.90;;;;;;4935968;29;20239;-62
2021/12/29 07:37:11;;;;;;;2.33;1.20;;;9.00;99.90;;;;;;4931130;29;20283;-63
2021/12/29 07:39:39;;;;;;;1.33;1.23;;;8.90;99.90;;;;;;4936176;29;20263;-62
2021/12/29 07:42:08;;;;;;;2.88;2.00;;;8.90;99.90;;;;;;4934593;29;20216;-62
2021/12/29 07:44:36;;;;;;;3.17;1.70;;;8.80;99.90;;;;;;4929622;29;20258;-63
2021/12/29 07:47:06;;;;;;;4.50;2.55;;;9.00;99.90;;;;;;4928536;29;20692;-63
2021/12/29 07:49:34;;;;;;;3.80;3.50;;;9.00;99.90;;;;;;4936115;29;20206;-62
2021/12/29 07:52:02;;;;;;;5.22;2.58;;;9.10;99.90;;;;;;4935320;29;20238;-63
2021/12/29 07:54:31;;;;;;;2.80;2.30;;;9.00;99.90;;;;;;4935326;29;20294;-64
2021/12/29 07:56:59;;;;;;;5.00;1.80;;;9.20;99.90;;;;;;4934018;29;20312;-64
2021/12/29 07:59:27;;;;;;;1.58;1.48;;;9.20;99.90;;;;;;4934288;29;20243;-64
2021/12/29 08:01:55;;;;;;;2.55;1.70;;;9.20;99.90;;;;;;4934692;29;20310;-64
2021/12/29 08:04:23;;;;;;;2.83;2.22;;;9.00;99.90;;;;;;4934734;29;20239;-65
2021/12/29 08:06:52;;;;;;;3.10;1.80;;;9.00;99.90;;;;;;4935057;29;20242;-64
2021/12/29 08:09:19;;;;;;;3.47;2.15;;;9.00;99.90;;;;;;4934843;29;20638;-62
2021/12/29 08:11:49;;;;;;;2.25;2.05;;;9.00;99.90;;;;;;4935193;29;20198;-62
2021/12/29 08:14:18;;;;;;;5.15;2.65;;;9.20;99.90;;;;;;4924023;29;20240;-62
2021/12/29 08:16:46;;;;;;;4.15;3.63;;;9.30;99.90;;;;;;4933262;29;20605;-62
2021/12/29 08:19:15;;;;;;;5.05;3.58;;;9.40;99.90;;;;;;4935300;29;20204;-62
2021/12/29 08:21:44;;;;;;;3.80;3.50;;;9.50;99.90;;;;;;4934940;29;20219;-61
2021/12/29 08:24:12;;;;;;;6.30;4.38;;;9.60;99.90;;;;;;4934831;29;20288;-62
2021/12/29 08:26:40;;;;;;;3.65;3.25;;;9.70;99.90;;;;;;4935349;29;20200;-62
2021/12/29 08:29:09;;;;;;;3.08;2.58;;;9.60;99.90;;;;;;4934903;29;20728;-62
2021/12/29 08:31:37;;;;;;;4.28;2.50;;;9.70;99.90;;;;;;4935143;29;20287;-63
2021/12/29 08:34:05;;;;;;;3.05;2.65;;;9.90;99.90;;;;;;4934855;29;20243;-61
2021/12/29 08:36:33;;;;;;;4.65;3.35;;;10.00;99.90;;;;;;4934711;29;20231;-61
2021/12/29 08:39:01;;;;;;;4.28;2.63;;;10.00;99.90;;;;;;4934981;29;20681;-62
2021/12/29 08:41:29;;;;;;;8.70;7.60;;;10.10;99.90;;;;;;4935172;29;20220;-62
2021/12/29 08:43:57;;;;;;;12.40;7.53;;;10.10;99.90;;;;;;4932269;29;20311;-62
2021/12/29 08:46:26;;;;;;;10.10;7.90;;;10.10;99.90;;;;;;4929461;29;20219;-62
2021/12/29 08:48:54;;;;;;;7.03;5.93;;;10.20;99.90;;;;;;4934742;29;20200;-61
2021/12/29 08:51:22;;;;;;;6.43;5.78;;;10.20;99.90;;;;;;4934834;29;20669;-62
2021/12/29 08:53:51;;;;;;;4.53;3.92;;;10.30;99.90;;;;;;4934548;29;20700;-62
2021/12/29 08:56:19;;;;;;;4.53;3.65;;;10.20;99.90;;;;;;4934458;29;20218;-63
2021/12/29 08:58:47;;;;;;;5.00;3.42;;;10.20;99.90;;;;;;4934741;29;20263;-61
2021/12/29 09:01:15;;;;;;;3.28;2.97;;;10.30;99.90;;;;;;4934626;29;20256;-62
2021/12/29 09:03:45;;;;;;;3.35;3.00;;;10.30;99.90;;;;;;4934441;29;20513;-62
2021/12/29 09:06:13;;;;;;;13.32;9.60;;;10.40;99.90;;;;;;4934337;29;20322;-62
2021/12/29 09:08:41;;;;;;;6.03;4.70;;;10.40;99.90;;;;;;4934676;29;20234;-62
2021/12/29 09:11:09;;;;;;;4.40;3.03;;;10.40;99.90;;;;;;4934674;29;20223;-62
2021/12/29 09:13:37;;;;;;;4.65;3.10;;;10.30;99.90;;;;;;4933934;29;20716;-62
2021/12/29 09:16:06;;;;;;;5.30;4.50;;;10.30;99.90;;;;;;4925805;29;20326;-62
2021/12/29 09:18:37;;;;;;;5.90;5.22;;;10.30;99.90;;;;;;4934383;29;20495;-62
2021/12/29 09:21:12;;;;;;;5.65;5.15;;;10.20;99.90;;;;;;4934417;29;20258;-62
2021/12/29 09:23:40;;;;;;;10.77;5.53;;;10.10;99.90;;;;;;4934265;29;20234;-62
2021/12/29 09:26:11;;;;;;;6.20;4.15;;;10.10;99.90;;;;;;4933956;29;20674;-62
2021/12/29 09:28:41;;;;;;;6.25;5.07;;;10.20;99.90;;;;;;4934277;29;20238;-62
2021/12/29 09:31:10;;;;;;;4.35;3.95;;;10.30;99.90;;;;;;4934492;29;20196;-62
2021/12/29 09:33:39;;;;;;;6.72;4.38;;;10.30;99.90;;;;;;4933972;29;20204;-65
2021/12/29 09:36:08;;;;;;;6.30;5.32;;;10.40;99.90;;;;;;4934165;29;20262;-64
2021/12/29 09:38:39;;;;;;;6.18;5.30;;;10.50;99.90;;;;;;4934136;29;20286;-65
2021/12/29 09:41:10;;;;;;;5.60;5.10;;;10.60;99.90;;;;;;4934292;29;20629;-62
2021/12/29 09:43:38;;;;;;;10.48;6.22;;;10.70;99.90;;;;;;4934105;29;20476;-62
2021/12/29 09:46:07;;;;;;;6.03;4.65;;;10.70;99.90;;;;;;4926388;29;20322;-62
2021/12/29 09:48:36;;;;;;;4.43;3.88;;;10.80;99.90;;;;;;4934088;29;20761;-62
2021/12/29 09:51:05;;;;;;;3.80;3.10;;;10.80;99.90;;;;;;4934172;29;20203;-62
2021/12/29 09:53:35;;;;;;;5.13;2.92;;;10.90;99.90;;;;;;4933825;29;20252;-62
2021/12/29 09:56:09;;;;;;;3.78;3.00;;;10.90;99.90;;;;;;4933958;29;20228;-62
2021/12/29 09:58:38;;;;;;;3.50;3.20;;;10.90;99.90;;;;;;4934117;29;20308;-62
2021/12/29 10:01:07;;;;;;;4.07;2.78;;;10.70;99.90;;;;;;4933909;29;20235;-62
2021/12/29 10:03:37;;;;;;;5.60;2.85;;;10.70;99.90;;;;;;4933965;29;20226;-62
2021/12/29 10:06:07;;;;;;;5.15;2.70;;;10.70;99.90;;;;;;4933939;29;20286;-62
2021/12/29 10:08:38;;;;;;;3.58;3.28;;;10.70;99.90;;;;;;4933957;29;20231;-64
2021/12/29 10:11:09;;;;;;;4.50;3.28;;;10.70;99.90;;;;;;4933977;29;20240;-64
2021/12/29 10:13:42;;;;;;;7.40;3.17;;;10.70;99.90;;;;;;4933534;29;20291;-64
2021/12/29 10:16:12;;;;;;;3.05;2.75;;;10.80;99.90;;;;;;4926640;29;20247;-64
2021/12/29 10:18:43;;;;;;;4.40;2.95;;;10.90;99.90;;;;;;4933981;29;20192;-64
2021/12/29 10:21:14;;;;;;;3.20;2.55;;;11.10;99.90;;;;;;4933718;29;20200;-62
2021/12/29 10:23:47;;;;;;;5.18;2.75;;;11.20;99.90;;;;;;4933505;29;20319;-64
2021/12/29 10:26:39;;;;;;;4.20;2.55;;;11.30;99.90;;;;;;4933615;29;20206;-64
2021/12/29 10:29:10;;;;;;;1.98;1.80;;;11.50;99.90;;;;;;4937313;29;20283;-64
2021/12/29 10:31:41;;;;;;;4.30;2.28;;;11.60;99.90;;;;;;4937402;29;20287;-64
2021/12/29 10:34:11;;;;;;;3.65;1.83;;;11.90;99.90;;;;;;4937011;29;20307;-64
2021/12/29 10:36:41;;;;;;;3.90;2.40;;;11.90;99.90;;;;;;4937270;29;20206;-64
2021/12/29 10:39:17;;;;;;;2.53;1.70;;;12.00;99.90;;;;;;4937256;29;20235;-64
2021/12/29 10:41:49;;;;;;;6.47;2.40;;;11.90;99.90;;;;;;4936941;29;20291;-64
2021/12/29 10:44:24;;;;;;;3.08;1.70;;;11.90;99.90;;;;;;4931698;29;20681;-64
2021/12/29 10:46:55;;;;;;;3.20;1.90;;;11.60;99.90;;;;;;4935537;29;20204;-64
2021/12/29 10:49:24;;;;;;;4.10;2.15;;;11.40;99.90;;;;;;4937146;29;20200;-64
2021/12/29 10:51:53;;;;;;;2.42;1.98;;;11.30;99.90;;;;;;4936567;29;20224;-63
2021/12/29 10:54:24;;;;;;;4.40;3.60;;;11.30;99.90;;;;;;4936783;29;20231;-64
2021/12/29 10:57:03;;;;;;;3.75;1.80;;;11.20;99.90;;;;;;4936702;29;20200;-64
2021/12/29 10:59:35;;;;;;;5.85;1.88;;;11.10;99.90;;;;;;4936803;29;20234;-64
2021/12/29 11:02:04;;;;;;;4.72;1.98;;;11.00;99.90;;;;;;4936106;29;20688;-64
2021/12/29 11:04:32;;;;;;;1.98;1.55;;;11.10;99.90;;;;;;4936792;29;20323;-64
2021/12/29 11:07:01;;;;;;;3.70;2.90;;;11.10;99.90;;;;;;4936772;29;20646;-63
2021/12/29 11:09:33;;;;;;;2.97;2.67;;;11.20;99.90;;;;;;4936734;29;20287;-64
2021/12/29 11:12:08;;;;;;;1.40;1.20;;;11.30;99.90;;;;;;4936313;29;20290;-64
2021/12/29 11:14:42;;;;;;;2.60;1.38;;;11.40;99.90;;;;;;4928739;29;20228;-64
2021/12/29 11:17:12;;;;;;;3.35;1.40;;;11.60;99.90;;;;;;4917685;29;20235;-64
2021/12/29 11:19:45;;;;;;;2.85;1.63;;;11.90;99.90;;;;;;4917560;29;20227;-64
2021/12/29 11:22:15;;;;;;;1.65;1.15;;;12.00;99.90;;;;;;4916872;29;20279;-62
2021/12/29 11:24:45;;;;;;;3.17;1.60;;;12.20;99.90;;;;;;4916858;29;20284;-64
2021/12/29 11:27:16;;;;;;;4.13;1.38;;;12.50;99.90;;;;;;4917275;29;20705;-64
2021/12/29 11:29:55;;;;;;;3.65;1.67;;;12.60;99.90;;;;;;4917174;29;20590;-63
2021/12/29 11:32:27;;;;;;;2.72;1.50;;;12.30;99.90;;;;;;4916766;29;20604;-64
2021/12/29 11:35:01;;;;;;;2.40;1.38;;;12.10;99.90;;;;;;4917577;29;20259;-64
2021/12/29 11:37:30;;;;;;;4.00;1.70;;;11.80;99.90;;;;;;4917071;29;20271;-62
2021/12/29 11:39:59;;;;;;;2.60;1.05;;;11.90;99.90;;;;;;4916488;29;20240;-63
2021/12/29 11:42:27;;;;;;;3.08;1.63;;;11.80;99.90;;;;;;4921452;29;20247;-64
2021/12/29 11:44:56;;;;;;;5.00;1.80;;;11.70;99.90;;;;;;4927861;29;20225;-64
2021/12/29 11:47:24;;;;;;;4.28;1.70;;;11.50;99.90;;;;;;4936098;29;20192;-64
2021/12/29 11:49:52;;;;;;;3.75;1.48;;;11.50;99.90;;;;;;4936153;29;20283;-64
2021/12/29 11:52:35;;;;;;;3.75;1.63;;;11.50;99.90;;;;;;4935635;29;20204;-64
2021/12/29 11:55:12;;;;;;;5.75;2.47;;;11.50;99.90;;;;;;4936201;29;20252;-65
2021/12/29 11:57:40;;;;;;;3.50;1.52;;;11.20;99.90;;;;;;4935835;29;20219;-63
2021/12/29 12:00:12;;;;;;;5.70;1.85;;;11.10;99.90;;;;;;4935901;29;20204;-63
2021/12/29 12:02:41;;;;;;;2.10;1.50;;;11.00;99.90;;;;;;4935130;29;20270;-63
2021/12/29 12:05:11;;;;;;;2.75;1.65;;;10.90;99.90;;;;;;4935704;29;20230;-64
2021/12/29 12:07:40;;;;;;;4.00;1.90;;;11.00;99.90;;;;;;4935814;29;20630;-63
2021/12/29 12:10:12;;;;;;;8.32;1.80;;;11.00;99.90;;;;;;4935705;29;20261;-62
2021/12/29 12:12:42;;;;;;;3.33;1.73;;;11.10;99.90;;;;;;4934993;29;20242;-61
2021/12/29 12:15:12;;;;;;;4.30;1.98;;;11.00;99.90;;;;;;4927192;29;20661;-63
2021/12/29 12:17:41;;;;;;;3.47;1.45;;;11.00;99.90;;;;;;4935583;29;20267;-62
2021/12/29 12:20:12;;;;;;;2.38;1.23;;;10.90;99.90;;;;;;4935381;29;20377;-63
2021/12/29 12:22:46;;;;;;;4.93;1.50;;;10.80;99.90;;;;;;4934818;29;20196;-62
2021/12/29 12:25:19;;;;;;;4.10;2.05;;;10.70;99.90;;;;;;4926948;29;20266;-63
2021/12/29 12:27:50;;;;;;;4.63;2.20;;;10.70;99.90;;;;;;4932669;29;20215;-63
2021/12/29 12:30:23;;;;;;;5.60;2.40;;;10.70;99.90;;;;;;4922847;29;20259;-62
2021/12/29 12:32:54;;;;;;;3.28;2.33;;;10.70;99.90;;;;;;4918033;29;20236;-63
2021/12/29 12:35:31;;;;;;;5.13;2.28;;;10.70;99.90;;;;;;4934234;29;20251;-63
2021/12/29 12:37:59;;;;;;;4.60;1.58;;;10.80;99.90;;;;;;4934407;29;20695;-63
2021/12/29 12:40:31;;;;;;;4.78;2.22;;;10.70;99.90;;;;;;4934286;29;20625;-62
2021/12/29 12:43:02;;;;;;;5.53;1.95;;;10.70;99.90;;;;;;4932635;29;20307;-63
2021/12/29 12:45:33;;;;;;;2.78;1.50;;;10.60;99.90;;;;;;4924573;29;20315;-63
2021/12/29 12:48:08;;;;;;;3.00;1.65;;;10.60;99.90;;;;;;4928688;29;20264;-65
2021/12/29 12:50:38;;;;;;;6.35;1.90;;;10.60;99.90;;;;;;4926373;29;20212;-62
2021/12/29 12:53:07;;;;;;;4.30;2.00;;;10.60;99.90;;;;;;4921192;29;20299;-63
2021/12/29 12:55:48;;;;;;;5.00;1.65;;;10.60;99.90;;;;;;4928693;29;20228;-61
2021/12/29 12:58:18;;;;;;;3.88;1.77;;;10.50;99.90;;;;;;4926314;29;20200;-63
2021/12/29 13:00:49;;;;;;;5.63;2.20;;;10.50;99.90;;;;;;4917875;29;20224;-63
2021/12/29 13:03:20;;;;;;;6.38;2.22;;;10.50;99.90;;;;;;4909873;29;20232;-63
2021/12/29 13:05:53;;;;;;;4.75;2.05;;;10.40;99.90;;;;;;4910237;29;20283;-62
2021/12/29 13:08:22;;;;;;;6.53;2.20;;;10.40;99.90;;;;;;4926465;29;20255;-63